sensor_id;sensor_type;location;lat;lon;timestamp;P1;durP1;ratioP1;P2;durP2;ratioP2
75700;SDS011;64321;48.796;44.740;2023-05-07T00:02:19;2.22;;;0.98;;
75700;SDS011;64321;48.796;44.740;2023-05-07T00:07:35;2.20;;;0.93;;
75700;SDS011;64321;48.796;44.740;2023-05-07T00:13:10;2.47;;;0.68;;
75700;SDS011;64321;48.796;44.740;2023-05-07T00:18:54;2.13;;;0.75;;
75700;SDS011;64321;48.796;44.740;2023-05-07T00:30:32;1.83;;;0.80;;
75700;SDS011;64321;48.796;44.740;2023-05-07T00:35:53;1.50;;;0.90;;
75700;SDS011;64321;48.796;44.740;2023-05-07T00:41:19;1.60;;;0.60;;
75700;SDS011;64321;48.796;44.740;2023-05-07T00:46:59;3.20;;;0.70;;
75700;SDS011;64321;48.796;44.740;2023-05-07T00:52:16;2.50;;;0.98;;
75700;SDS011;64321;48.796;44.740;2023-05-07T00:57:37;3.15;;;2.08;;
75700;SDS011;64321;48.796;44.740;2023-05-07T01:09:38;3.00;;;1.08;;
75700;SDS011;64321;48.796;44.740;2023-05-07T01:15:11;2.00;;;1.08;;
75700;SDS011;64321;48.796;44.740;2023-05-07T01:20:58;3.88;;;0.93;;
75700;SDS011;64321;48.796;44.740;2023-05-07T01:27:04;2.20;;;1.02;;
75700;SDS011;64321;48.796;44.740;2023-05-07T01:32:35;3.85;;;1.48;;
75700;SDS011;64321;48.796;44.740;2023-05-07T01:43:44;2.72;;;1.02;;
75700;SDS011;64321;48.796;44.740;2023-05-07T01:49:15;2.25;;;1.35;;
75700;SDS011;64321;48.796;44.740;2023-05-07T01:54:32;3.25;;;1.45;;
75700;SDS011;64321;48.796;44.740;2023-05-07T02:00:12;2.95;;;1.85;;
75700;SDS011;64321;48.796;44.740;2023-05-07T02:05:39;2.38;;;1.05;;
75700;SDS011;64321;48.796;44.740;2023-05-07T02:11:48;3.03;;;0.77;;
75700;SDS011;64321;48.796;44.740;2023-05-07T02:17:08;3.28;;;1.77;;
75700;SDS011;64321;48.796;44.740;2023-05-07T02:22:44;1.75;;;0.70;;
75700;SDS011;64321;48.796;44.740;2023-05-07T02:28:48;2.53;;;1.10;;
75700;SDS011;64321;48.796;44.740;2023-05-07T02:34:25;1.90;;;1.45;;
75700;SDS011;64321;48.796;44.740;2023-05-07T02:40:30;1.95;;;0.80;;
75700;SDS011;64321;48.796;44.740;2023-05-07T02:51:56;1.98;;;0.98;;
75700;SDS011;64321;48.796;44.740;2023-05-07T02:57:29;2.75;;;0.70;;
75700;SDS011;64321;48.796;44.740;2023-05-07T03:03:17;2.10;;;0.70;;
75700;SDS011;64321;48.796;44.740;2023-05-07T03:09:29;2.30;;;1.42;;
75700;SDS011;64321;48.796;44.740;2023-05-07T03:15:25;2.45;;;0.80;;
75700;SDS011;64321;48.796;44.740;2023-05-07T03:20:47;2.33;;;1.75;;
75700;SDS011;64321;48.796;44.740;2023-05-07T03:26:08;2.33;;;1.00;;
75700;SDS011;64321;48.796;44.740;2023-05-07T03:31:45;1.95;;;1.00;;
75700;SDS011;64321;48.796;44.740;2023-05-07T03:37:11;3.10;;;1.35;;
75700;SDS011;64321;48.796;44.740;2023-05-07T03:42:53;3.33;;;1.10;;
75700;SDS011;64321;48.796;44.740;2023-05-07T03:49:23;1.98;;;1.02;;
75700;SDS011;64321;48.796;44.740;2023-05-07T03:55:04;2.42;;;2.08;;
75700;SDS011;64321;48.796;44.740;2023-05-07T04:00:39;3.13;;;1.98;;
75700;SDS011;64321;48.796;44.740;2023-05-07T04:06:07;1.75;;;1.10;;
75700;SDS011;64321;48.796;44.740;2023-05-07T04:17:31;2.17;;;1.40;;
75700;SDS011;64321;48.796;44.740;2023-05-07T04:22:54;5.10;;;2.35;;
75700;SDS011;64321;48.796;44.740;2023-05-07T04:28:40;3.00;;;0.95;;
75700;SDS011;64321;48.796;44.740;2023-05-07T04:34:29;2.28;;;1.67;;
75700;SDS011;64321;48.796;44.740;2023-05-07T04:45:16;5.47;;;1.65;;
75700;SDS011;64321;48.796;44.740;2023-05-07T04:51:21;2.70;;;0.90;;
75700;SDS011;64321;48.796;44.740;2023-05-07T04:56:46;2.38;;;0.80;;
75700;SDS011;64321;48.796;44.740;2023-05-07T05:02:14;4.40;;;1.15;;
75700;SDS011;64321;48.796;44.740;2023-05-07T05:07:37;2.95;;;1.00;;
75700;SDS011;64321;48.796;44.740;2023-05-07T05:13:10;3.72;;;1.80;;
75700;SDS011;64321;48.796;44.740;2023-05-07T05:19:34;2.40;;;0.90;;
75700;SDS011;64321;48.796;44.740;2023-05-07T05:24:54;3.15;;;1.23;;
75700;SDS011;64321;48.796;44.740;2023-05-07T05:31:09;4.00;;;1.75;;
75700;SDS011;64321;48.796;44.740;2023-05-07T05:36:29;2.25;;;1.00;;
75700;SDS011;64321;48.796;44.740;2023-05-07T05:48:09;2.58;;;1.30;;
75700;SDS011;64321;48.796;44.740;2023-05-07T05:53:51;3.85;;;1.60;;
75700;SDS011;64321;48.796;44.740;2023-05-07T05:59:15;4.32;;;2.45;;
75700;SDS011;64321;48.796;44.740;2023-05-07T06:04:58;4.55;;;2.08;;
75700;SDS011;64321;48.796;44.740;2023-05-07T06:10:42;2.88;;;1.85;;
75700;SDS011;64321;48.796;44.740;2023-05-07T06:16:10;3.28;;;1.65;;
75700;SDS011;64321;48.796;44.740;2023-05-07T06:27:28;7.07;;;1.40;;
75700;SDS011;64321;48.796;44.740;2023-05-07T06:33:09;3.95;;;1.02;;
75700;SDS011;64321;48.796;44.740;2023-05-07T06:38:54;4.40;;;1.17;;
75700;SDS011;64321;48.796;44.740;2023-05-07T06:44:08;3.28;;;2.40;;
75700;SDS011;64321;48.796;44.740;2023-05-07T06:50:17;4.07;;;2.38;;
75700;SDS011;64321;48.796;44.740;2023-05-07T06:55:38;4.65;;;1.50;;
75700;SDS011;64321;48.796;44.740;2023-05-07T07:07:15;4.47;;;1.70;;
75700;SDS011;64321;48.796;44.740;2023-05-07T07:12:43;4.43;;;1.30;;
75700;SDS011;64321;48.796;44.740;2023-05-07T07:18:21;3.53;;;2.00;;
75700;SDS011;64321;48.796;44.740;2023-05-07T07:24:17;2.95;;;0.95;;
75700;SDS011;64321;48.796;44.740;2023-05-07T07:30:14;3.80;;;1.15;;
75700;SDS011;64321;48.796;44.740;2023-05-07T07:35:29;4.13;;;1.20;;
75700;SDS011;64321;48.796;44.740;2023-05-07T07:41:13;6.35;;;1.10;;
75700;SDS011;64321;48.796;44.740;2023-05-07T07:46:28;4.68;;;1.33;;
75700;SDS011;64321;48.796;44.740;2023-05-07T07:52:04;4.38;;;1.35;;
75700;SDS011;64321;48.796;44.740;2023-05-07T08:09:54;3.47;;;2.13;;
75700;SDS011;64321;48.796;44.740;2023-05-07T08:16:15;2.90;;;1.13;;
75700;SDS011;64321;48.796;44.740;2023-05-07T08:22:03;7.55;;;1.15;;
75700;SDS011;64321;48.796;44.740;2023-05-07T08:27:33;10.13;;;3.45;;
75700;SDS011;64321;48.796;44.740;2023-05-07T08:33:01;5.97;;;1.70;;
75700;SDS011;64321;48.796;44.740;2023-05-07T08:38:19;3.88;;;0.98;;
75700;SDS011;64321;48.796;44.740;2023-05-07T08:44:00;5.97;;;2.28;;
75700;SDS011;64321;48.796;44.740;2023-05-07T08:49:53;6.63;;;2.13;;
75700;SDS011;64321;48.796;44.740;2023-05-07T08:55:48;5.85;;;2.40;;
75700;SDS011;64321;48.796;44.740;2023-05-07T09:01:43;2.95;;;1.05;;
75700;SDS011;64321;48.796;44.740;2023-05-07T09:07:24;4.35;;;2.08;;
75700;SDS011;64321;48.796;44.740;2023-05-07T09:13:00;9.70;;;3.58;;
75700;SDS011;64321;48.796;44.740;2023-05-07T09:18:24;5.10;;;1.00;;
75700;SDS011;64321;48.796;44.740;2023-05-07T09:24:06;3.25;;;1.27;;
75700;SDS011;64321;48.796;44.740;2023-05-07T09:29:49;3.90;;;2.15;;
75700;SDS011;64321;48.796;44.740;2023-05-07T09:35:33;5.63;;;1.83;;
75700;SDS011;64321;48.796;44.740;2023-05-07T09:41:12;7.03;;;2.50;;
75700;SDS011;64321;48.796;44.740;2023-05-07T09:47:04;6.32;;;1.83;;
75700;SDS011;64321;48.796;44.740;2023-05-07T09:53:17;12.38;;;3.60;;
75700;SDS011;64321;48.796;44.740;2023-05-07T09:58:46;8.02;;;3.55;;
75700;SDS011;64321;48.796;44.740;2023-05-07T10:04:17;7.40;;;4.95;;
75700;SDS011;64321;48.796;44.740;2023-05-07T10:10:00;4.13;;;2.38;;
75700;SDS011;64321;48.796;44.740;2023-05-07T10:15:51;3.50;;;2.47;;
75700;SDS011;64321;48.796;44.740;2023-05-07T10:21:26;6.82;;;3.47;;
75700;SDS011;64321;48.796;44.740;2023-05-07T10:27:41;3.17;;;1.88;;
75700;SDS011;64321;48.796;44.740;2023-05-07T10:33:08;3.83;;;1.42;;
75700;SDS011;64321;48.796;44.740;2023-05-07T10:38:45;3.38;;;1.67;;
75700;SDS011;64321;48.796;44.740;2023-05-07T10:44:28;6.93;;;1.02;;
75700;SDS011;64321;48.796;44.740;2023-05-07T10:50:20;4.55;;;1.15;;
75700;SDS011;64321;48.796;44.740;2023-05-07T11:01:52;4.47;;;1.52;;
75700;SDS011;64321;48.796;44.740;2023-05-07T11:07:38;4.57;;;1.50;;
75700;SDS011;64321;48.796;44.740;2023-05-07T11:19:16;4.15;;;2.10;;
75700;SDS011;64321;48.796;44.740;2023-05-07T11:24:42;4.97;;;2.80;;
75700;SDS011;64321;48.796;44.740;2023-05-07T11:36:07;7.97;;;3.92;;
75700;SDS011;64321;48.796;44.740;2023-05-07T11:47:32;7.28;;;3.42;;
75700;SDS011;64321;48.796;44.740;2023-05-07T11:52:51;5.80;;;2.97;;
75700;SDS011;64321;48.796;44.740;2023-05-07T12:04:51;6.13;;;1.90;;
75700;SDS011;64321;48.796;44.740;2023-05-07T12:16:51;4.78;;;1.35;;
75700;SDS011;64321;48.796;44.740;2023-05-07T12:22:48;6.18;;;1.95;;
75700;SDS011;64321;48.796;44.740;2023-05-07T12:28:08;4.75;;;1.73;;
75700;SDS011;64321;48.796;44.740;2023-05-07T12:33:34;3.03;;;1.83;;
75700;SDS011;64321;48.796;44.740;2023-05-07T12:39:15;3.35;;;1.70;;
75700;SDS011;64321;48.796;44.740;2023-05-07T12:45:12;4.28;;;2.25;;
75700;SDS011;64321;48.796;44.740;2023-05-07T12:50:55;4.35;;;2.25;;
75700;SDS011;64321;48.796;44.740;2023-05-07T12:56:11;4.78;;;2.85;;
75700;SDS011;64321;48.796;44.740;2023-05-07T13:01:58;4.88;;;2.33;;
75700;SDS011;64321;48.796;44.740;2023-05-07T13:07:24;6.95;;;3.42;;
75700;SDS011;64321;48.796;44.740;2023-05-07T13:13:19;7.18;;;2.80;;
75700;SDS011;64321;48.796;44.740;2023-05-07T13:18:42;6.75;;;2.47;;
75700;SDS011;64321;48.796;44.740;2023-05-07T13:24:03;8.95;;;3.20;;
75700;SDS011;64321;48.796;44.740;2023-05-07T13:29:42;4.97;;;2.53;;
75700;SDS011;64321;48.796;44.740;2023-05-07T13:35:01;7.45;;;2.72;;
75700;SDS011;64321;48.796;44.740;2023-05-07T13:40:34;6.83;;;2.50;;
75700;SDS011;64321;48.796;44.740;2023-05-07T13:45:51;4.65;;;2.20;;
75700;SDS011;64321;48.796;44.740;2023-05-07T13:51:18;5.22;;;1.83;;
75700;SDS011;64321;48.796;44.740;2023-05-07T13:56:57;6.30;;;2.75;;
75700;SDS011;64321;48.796;44.740;2023-05-07T14:02:36;6.25;;;2.55;;
75700;SDS011;64321;48.796;44.740;2023-05-07T14:08:21;5.57;;;2.40;;
75700;SDS011;64321;48.796;44.740;2023-05-07T14:13:54;6.38;;;2.22;;
75700;SDS011;64321;48.796;44.740;2023-05-07T14:19:23;6.05;;;2.28;;
75700;SDS011;64321;48.796;44.740;2023-05-07T14:25:12;5.30;;;1.90;;
75700;SDS011;64321;48.796;44.740;2023-05-07T14:31:17;4.00;;;2.08;;
75700;SDS011;64321;48.796;44.740;2023-05-07T14:42:42;6.05;;;2.40;;
75700;SDS011;64321;48.796;44.740;2023-05-07T14:48:40;6.45;;;2.25;;
75700;SDS011;64321;48.796;44.740;2023-05-07T14:54:19;6.95;;;2.05;;
75700;SDS011;64321;48.796;44.740;2023-05-07T15:00:12;9.05;;;3.03;;
75700;SDS011;64321;48.796;44.740;2023-05-07T15:12:02;4.57;;;2.25;;
75700;SDS011;64321;48.796;44.740;2023-05-07T15:17:32;5.63;;;1.98;;
75700;SDS011;64321;48.796;44.740;2023-05-07T15:23:22;5.45;;;2.05;;
75700;SDS011;64321;48.796;44.740;2023-05-07T15:28:45;8.80;;;3.30;;
75700;SDS011;64321;48.796;44.740;2023-05-07T15:34:07;9.10;;;3.38;;
75700;SDS011;64321;48.796;44.740;2023-05-07T15:39:46;7.95;;;3.28;;
75700;SDS011;64321;48.796;44.740;2023-05-07T15:45:30;4.78;;;2.38;;
75700;SDS011;64321;48.796;44.740;2023-05-07T15:56:56;4.45;;;1.95;;
75700;SDS011;64321;48.796;44.740;2023-05-07T16:02:20;4.85;;;2.15;;
75700;SDS011;64321;48.796;44.740;2023-05-07T16:07:49;7.90;;;2.28;;
75700;SDS011;64321;48.796;44.740;2023-05-07T16:13:25;5.55;;;2.80;;
75700;SDS011;64321;48.796;44.740;2023-05-07T16:18:47;14.55;;;10.55;;
75700;SDS011;64321;48.796;44.740;2023-05-07T16:24:06;23.58;;;12.07;;
75700;SDS011;64321;48.796;44.740;2023-05-07T16:29:37;16.70;;;6.80;;
75700;SDS011;64321;48.796;44.740;2023-05-07T16:35:16;6.68;;;3.05;;
75700;SDS011;64321;48.796;44.740;2023-05-07T16:40:39;8.10;;;3.67;;
75700;SDS011;64321;48.796;44.740;2023-05-07T16:46:44;13.07;;;7.97;;
75700;SDS011;64321;48.796;44.740;2023-05-07T16:52:21;26.55;;;16.00;;
75700;SDS011;64321;48.796;44.740;2023-05-07T16:57:31;23.13;;;16.80;;
75700;SDS011;64321;48.796;44.740;2023-05-07T17:03:19;20.00;;;14.52;;
75700;SDS011;64321;48.796;44.740;2023-05-07T17:09:14;18.60;;;11.80;;
75700;SDS011;64321;48.796;44.740;2023-05-07T17:14:54;15.82;;;11.32;;
75700;SDS011;64321;48.796;44.740;2023-05-07T17:20:14;11.43;;;8.43;;
75700;SDS011;64321;48.796;44.740;2023-05-07T17:25:42;19.20;;;12.57;;
75700;SDS011;64321;48.796;44.740;2023-05-07T17:31:33;10.50;;;5.03;;
75700;SDS011;64321;48.796;44.740;2023-05-07T17:37:30;8.75;;;3.80;;
75700;SDS011;64321;48.796;44.740;2023-05-07T17:43:23;13.73;;;7.50;;
75700;SDS011;64321;48.796;44.740;2023-05-07T17:49:21;8.52;;;3.58;;
75700;SDS011;64321;48.796;44.740;2023-05-07T17:54:37;4.47;;;2.28;;
75700;SDS011;64321;48.796;44.740;2023-05-07T18:00:13;4.40;;;2.13;;
75700;SDS011;64321;48.796;44.740;2023-05-07T18:05:29;4.88;;;2.53;;
75700;SDS011;64321;48.796;44.740;2023-05-07T18:11:16;6.38;;;2.47;;
75700;SDS011;64321;48.796;44.740;2023-05-07T18:17:21;9.80;;;3.03;;
75700;SDS011;64321;48.796;44.740;2023-05-07T18:22:46;9.20;;;2.78;;
75700;SDS011;64321;48.796;44.740;2023-05-07T18:28:44;6.90;;;2.88;;
75700;SDS011;64321;48.796;44.740;2023-05-07T18:34:19;6.75;;;2.58;;
75700;SDS011;64321;48.796;44.740;2023-05-07T18:45:49;8.27;;;2.97;;
75700;SDS011;64321;48.796;44.740;2023-05-07T18:51:41;7.03;;;2.25;;
75700;SDS011;64321;48.796;44.740;2023-05-07T18:56:57;5.30;;;2.20;;
75700;SDS011;64321;48.796;44.740;2023-05-07T19:02:11;4.13;;;1.77;;
75700;SDS011;64321;48.796;44.740;2023-05-07T19:07:57;4.90;;;2.10;;
75700;SDS011;64321;48.796;44.740;2023-05-07T19:13:42;7.72;;;2.83;;
75700;SDS011;64321;48.796;44.740;2023-05-07T19:19:09;6.13;;;2.42;;
75700;SDS011;64321;48.796;44.740;2023-05-07T19:24:52;5.55;;;1.90;;
75700;SDS011;64321;48.796;44.740;2023-05-07T19:36:38;6.03;;;1.88;;
75700;SDS011;64321;48.796;44.740;2023-05-07T19:42:08;4.05;;;1.70;;
75700;SDS011;64321;48.796;44.740;2023-05-07T19:47:50;6.40;;;1.70;;
75700;SDS011;64321;48.796;44.740;2023-05-07T19:53:32;7.47;;;2.17;;
75700;SDS011;64321;48.796;44.740;2023-05-07T19:58:51;13.55;;;7.28;;
75700;SDS011;64321;48.796;44.740;2023-05-07T20:10:06;12.60;;;7.00;;
75700;SDS011;64321;48.796;44.740;2023-05-07T20:15:24;8.43;;;4.95;;
75700;SDS011;64321;48.796;44.740;2023-05-07T20:20:46;9.88;;;6.28;;
75700;SDS011;64321;48.796;44.740;2023-05-07T20:32:22;19.02;;;10.15;;
75700;SDS011;64321;48.796;44.740;2023-05-07T20:37:36;19.42;;;11.38;;
75700;SDS011;64321;48.796;44.740;2023-05-07T20:42:51;16.05;;;9.77;;
75700;SDS011;64321;48.796;44.740;2023-05-07T20:48:24;14.75;;;8.65;;
75700;SDS011;64321;48.796;44.740;2023-05-07T20:54:42;12.50;;;5.45;;
75700;SDS011;64321;48.796;44.740;2023-05-07T21:00:26;11.07;;;6.03;;
75700;SDS011;64321;48.796;44.740;2023-05-07T21:11:54;8.13;;;3.40;;
75700;SDS011;64321;48.796;44.740;2023-05-07T21:17:59;4.78;;;2.53;;
75700;SDS011;64321;48.796;44.740;2023-05-07T21:23:13;4.88;;;2.40;;
75700;SDS011;64321;48.796;44.740;2023-05-07T21:29:10;4.97;;;3.25;;
75700;SDS011;64321;48.796;44.740;2023-05-07T21:34:25;5.60;;;2.15;;
75700;SDS011;64321;48.796;44.740;2023-05-07T21:45:53;3.28;;;1.50;;
75700;SDS011;64321;48.796;44.740;2023-05-07T21:51:07;13.43;;;8.60;;
75700;SDS011;64321;48.796;44.740;2023-05-07T21:56:45;19.25;;;10.65;;
75700;SDS011;64321;48.796;44.740;2023-05-07T22:02:32;15.10;;;8.30;;
75700;SDS011;64321;48.796;44.740;2023-05-07T22:07:46;7.47;;;4.10;;
75700;SDS011;64321;48.796;44.740;2023-05-07T22:13:22;7.68;;;3.97;;
75700;SDS011;64321;48.796;44.740;2023-05-07T22:19:15;7.53;;;3.45;;
75700;SDS011;64321;48.796;44.740;2023-05-07T22:24:57;4.50;;;1.67;;
75700;SDS011;64321;48.796;44.740;2023-05-07T22:30:32;3.78;;;1.55;;
75700;SDS011;64321;48.796;44.740;2023-05-07T22:36:22;4.43;;;2.15;;
75700;SDS011;64321;48.796;44.740;2023-05-07T22:42:19;11.02;;;4.82;;
75700;SDS011;64321;48.796;44.740;2023-05-07T22:48:08;24.98;;;13.45;;
75700;SDS011;64321;48.796;44.740;2023-05-07T22:53:32;21.45;;;11.02;;
75700;SDS011;64321;48.796;44.740;2023-05-07T22:59:13;16.27;;;7.90;;
75700;SDS011;64321;48.796;44.740;2023-05-07T23:04:39;13.57;;;6.32;;
75700;SDS011;64321;48.796;44.740;2023-05-07T23:10:18;14.73;;;7.65;;
75700;SDS011;64321;48.796;44.740;2023-05-07T23:22:22;19.75;;;11.60;;
75700;SDS011;64321;48.796;44.740;2023-05-07T23:27:38;20.50;;;12.38;;
75700;SDS011;64321;48.796;44.740;2023-05-07T23:33:18;15.30;;;10.57;;
75700;SDS011;64321;48.796;44.740;2023-05-07T23:49:38;14.63;;;8.52;;
75700;SDS011;64321;48.796;44.740;2023-05-07T23:54:50;14.55;;;9.23;;
